Etihad Airways Virtual Airport Information Service

Kuwait International Airport

ICAO: OKBK Country: Kuwait
Latitude: 29.2266 Longitude: 47.9689
Latest Arrival : QTR1078 (OTHH-OKBK) Latest Departure : KAC677 (OKBK-OMDB)


WX CaptureLIVE
Data provided by noaa.gov | Recorded at 14:24:31

METAR : OKBK 191400Z 01006KT CAVOK 21/02 Q1018 NOSIG

TAF : OKBK 191045Z 1912/2018 VRB03KT 7000 NSC BECMG 1915/1917 FEW040 SCT080


Runway Data for OKBK
Data provided by openaviationdata.com

Runway ID Mag Var Hdg Length Elevation Surface ILS Freq ILS Id ILS Slope

Kuwait International Airport, Kuwait
Use only for reference purposes